Time,TemperatureF,DewpointF,PressureIn,WindDirection,WindDirectionDegrees,WindSpeedMPH,WindSpeedGustMPH,Humidity,HourlyPrecipIn,Conditions,Clouds,dailyrainin,SoftwareType,DateUTC
2013-05-07 00:14:00,49.7,34.0,29.79,SSW,213,1.0,3.0,55,0.00,,,0.00,weatherlink.com 1.10,2013-05-07 06:14:00,
2013-05-07 00:29:00,52.2,32.0,29.79,ESE,119,1.0,3.0,47,0.00,,,0.00,weatherlink.com 1.10,2013-05-07 06:29:00,
2013-05-07 00:44:00,50.8,33.0,29.79,SE,133,0.0,3.0,50,0.00,,,0.00,weatherlink.com 1.10,2013-05-07 06:44:00,
2013-05-07 00:59:00,50.5,33.0,29.79,ESE,110,2.0,2.0,51,0.00,,,0.00,weatherlink.com 1.10,2013-05-07 06:59:00,
2013-05-07 01:14:00,48.3,33.0,29.79,SW,226,1.0,2.0,56,0.00,,,0.00,weatherlink.com 1.10,2013-05-07 07:14:00,
2013-05-07 01:30:00,48.5,33.0,29.78,SE,126,0.0,3.0,55,0.00,,,0.00,weatherlink.com 1.10,2013-05-07 07:30:00,
2013-05-07 01:45:00,48.1,33.0,29.78,SSE,163,0.0,2.0,56,0.00,,,0.00,weatherlink.com 1.10,2013-05-07 07:45:00,
2013-05-07 02:00:00,47.5,33.0,29.77,WSW,257,1.0,2.0,57,0.00,,,0.00,weatherlink.com 1.10,2013-05-07 08:00:00,
2013-05-07 02:15:00,47.2,33.0,29.77,WSW,250,0.0,1.0,58,0.00,,,0.00,weatherlink.com 1.10,2013-05-07 08:15:00,
2013-05-07 02:30:00,46.7,32.0,29.77,WSW,237,1.0,2.0,58,0.00,,,0.00,weatherlink.com 1.10,2013-05-07 08:30:00,
2013-05-07 02:45:00,46.2,32.0,29.76,WSW,248,0.0,2.0,59,0.00,,,0.00,weatherlink.com 1.10,2013-05-07 08:45:00,
2013-05-07 03:00:00,45.1,33.0,29.76,WSW,248,0.0,0.0,62,0.00,,,0.00,weatherlink.com 1.10,2013-05-07 09:00:00,
2013-05-07 03:15:00,44.5,32.0,29.76,SSW,207,1.0,2.0,61,0.00,,,0.00,weatherlink.com 1.10,2013-05-07 09:15:00,
2013-05-07 03:30:00,44.4,32.0,29.77,South,172,0.0,0.0,61,0.00,,,0.00,weatherlink.com 1.10,2013-05-07 09:30:00,
2013-05-07 03:45:00,42.6,32.0,29.77,ESE,116,2.0,3.0,67,0.00,,,0.00,weatherlink.com 1.10,2013-05-07 09:45:00,
2013-05-07 04:00:00,41.8,32.0,29.77,ESE,115,1.0,3.0,67,0.00,,,0.00,weatherlink.com 1.10,2013-05-07 10:00:00,
2013-05-07 04:15:00,40.5,32.0,29.77,East,85,0.0,1.0,71,0.00,,,0.00,weatherlink.com 1.10,2013-05-07 10:15:00,
2013-05-07 04:30:00,40.6,31.0,29.77,SE,140,1.0,2.0,69,0.00,,,0.00,weatherlink.com 1.10,2013-05-07 10:30:00,
2013-05-07 04:45:00,39.5,31.0,29.77,SSE,149,1.0,3.0,72,0.00,,,0.00,weatherlink.com 1.10,2013-05-07 10:45:00,
2013-05-07 05:00:00,39.2,30.0,29.78,SSE,149,0.0,3.0,70,0.00,,,0.00,weatherlink.com 1.10,2013-05-07 11:00:00,
2013-05-07 05:15:00,37.7,30.0,29.78,SSE,149,0.0,0.0,75,0.00,,,0.00,weatherlink.com 1.10,2013-05-07 11:15:00,
2013-05-07 05:30:00,37.2,31.0,29.78,SSE,162,1.0,2.0,78,0.00,,,0.00,weatherlink.com 1.10,2013-05-07 11:30:00,
2013-05-07 05:45:00,37.4,31.0,29.78,SW,226,0.0,2.0,78,0.00,,,0.00,weatherlink.com 1.10,2013-05-07 11:45:00,
2013-05-07 06:00:00,37.8,32.0,29.78,SW,226,0.0,1.0,80,0.00,,,0.00,weatherlink.com 1.10,2013-05-07 12:00:00,
2013-05-07 06:15:00,37.2,32.0,29.78,West,262,0.0,1.0,81,0.00,,,0.00,weatherlink.com 1.10,2013-05-07 12:15:00,
2013-05-07 06:30:00,38.5,32.0,29.79,West,262,0.0,1.0,78,0.00,,,0.00,weatherlink.com 1.10,2013-05-07 12:30:00,
2013-05-07 06:45:00,41.6,33.0,29.79,SW,231,0.0,2.0,72,0.00,,,0.00,weatherlink.com 1.10,2013-05-07 12:45:00,
2013-05-07 07:00:00,41.8,34.0,29.79,West,276,2.0,4.0,73,0.00,,,0.00,weatherlink.com 1.10,2013-05-07 13:00:00,
2013-05-07 07:15:00,42.8,34.0,29.79,West,266,3.0,4.0,72,0.00,,,0.00,weatherlink.com 1.10,2013-05-07 13:15:00,
2013-05-07 07:30:00,44.5,35.0,29.78,WNW,289,0.0,3.0,69,0.00,,,0.00,weatherlink.com 1.10,2013-05-07 13:30:00,
2013-05-07 07:45:00,46.6,35.0,29.79,SW,220,1.0,2.0,65,0.00,,,0.00,weatherlink.com 1.10,2013-05-07 13:45:00,
2013-05-07 08:00:00,49.0,35.0,29.79,WSW,246,2.0,4.0,60,0.00,,,0.00,weatherlink.com 1.10,2013-05-07 14:00:00,
2013-05-07 08:15:00,51.7,37.0,29.78,WNW,287,2.0,4.0,57,0.00,,,0.00,weatherlink.com 1.10,2013-05-07 14:15:00,
2013-05-07 08:30:00,54.1,36.0,29.77,NW,308,3.0,7.0,50,0.00,,,0.00,weatherlink.com 1.10,2013-05-07 14:30:00,
2013-05-07 08:46:00,55.5,36.0,29.77,West,267,5.0,7.0,48,0.00,,,0.00,weatherlink.com 1.10,2013-05-07 14:46:00,
2013-05-07 09:01:00,56.7,35.0,29.77,WNW,297,4.0,7.0,45,0.00,,,0.00,weatherlink.com 1.10,2013-05-07 15:01:00,
2013-05-07 09:16:00,58.1,35.0,29.77,West,270,3.0,6.0,43,0.00,,,0.00,weatherlink.com 1.10,2013-05-07 15:16:00,
2013-05-07 09:31:00,59.4,36.0,29.77,West,259,1.0,7.0,42,0.00,,,0.00,weatherlink.com 1.10,2013-05-07 15:31:00,
2013-05-07 09:46:00,60.8,36.0,29.76,NW,313,4.0,7.0,40,0.00,,,0.00,weatherlink.com 1.10,2013-05-07 15:46:00,
2013-05-07 10:01:00,62.5,37.0,29.76,WSW,253,6.0,8.0,39,0.00,,,0.00,weatherlink.com 1.10,2013-05-07 16:01:00,
2013-05-07 10:16:00,64.2,37.0,29.76,WNW,288,4.0,8.0,37,0.00,,,0.00,weatherlink.com 1.10,2013-05-07 16:16:00,
2013-05-07 10:31:00,65.7,36.0,29.75,WSW,241,4.0,6.0,34,0.00,,,0.00,weatherlink.com 1.10,2013-05-07 16:31:00,
2013-05-07 10:46:00,67.2,35.0,29.75,NW,314,2.0,7.0,31,0.00,,,0.00,weatherlink.com 1.10,2013-05-07 16:46:00,
2013-05-07 11:01:00,68.4,36.0,29.75,West,259,3.0,8.0,30,0.00,,,0.00,weatherlink.com 1.10,2013-05-07 17:01:00,
2013-05-07 11:16:00,69.6,37.0,29.75,WSW,243,2.0,8.0,30,0.00,,,0.00,weatherlink.com 1.10,2013-05-07 17:16:00,
2013-05-07 11:31:00,70.9,35.0,29.75,West,259,1.0,6.0,27,0.00,,,0.00,weatherlink.com 1.10,2013-05-07 17:31:00,
2013-05-07 11:46:00,73.0,35.0,29.74,South,175,1.0,7.0,25,0.00,,,0.00,weatherlink.com 1.10,2013-05-07 17:46:00,
2013-05-07 12:01:00,74.1,36.0,29.73,West,271,2.0,5.0,25,0.00,,,0.00,weatherlink.com 1.10,2013-05-07 18:01:00,
2013-05-07 12:16:00,75.2,36.0,29.73,East,82,2.0,3.0,24,0.00,,,0.00,weatherlink.com 1.10,2013-05-07 18:16:00,
2013-05-07 12:31:00,75.8,34.0,29.73,NNE,14,3.0,6.0,22,0.00,,,0.00,weatherlink.com 1.10,2013-05-07 18:31:00,
2013-05-07 12:46:00,76.0,29.0,29.72,West,271,0.0,7.0,18,0.00,,,0.00,weatherlink.com 1.10,2013-05-07 18:46:00,
2013-05-07 13:01:00,77.0,34.0,29.72,ENE,75,5.0,7.0,21,0.00,,,0.00,weatherlink.com 1.10,2013-05-07 19:01:00,
2013-05-07 13:17:00,77.2,29.0,29.71,SSE,156,4.0,9.0,17,0.00,,,0.00,weatherlink.com 1.10,2013-05-07 19:17:00,
2013-05-07 13:32:00,76.6,30.0,29.71,ESE,118,2.0,12.0,18,0.00,,,0.00,weatherlink.com 1.10,2013-05-07 19:32:00,
2013-05-07 13:47:00,77.4,33.0,29.71,SSE,168,1.0,10.0,20,0.00,,,0.00,weatherlink.com 1.10,2013-05-07 19:47:00,
2013-05-07 14:02:00,77.8,31.0,29.71,East,84,8.0,12.0,18,0.00,,,0.00,weatherlink.com 1.10,2013-05-07 20:02:00,
2013-05-07 14:17:00,78.6,33.0,29.71,NE,44,9.0,12.0,19,0.00,,,0.00,weatherlink.com 1.10,2013-05-07 20:17:00,
2013-05-07 14:32:00,78.0,32.0,29.70,ENE,61,12.0,15.0,19,0.00,,,0.00,weatherlink.com 1.10,2013-05-07 20:32:00,
2013-05-07 14:47:00,77.6,31.0,29.70,ESE,122,6.0,12.0,18,0.00,,,0.00,weatherlink.com 1.10,2013-05-07 20:47:00,
2013-05-07 15:02:00,78.7,32.0,29.70,ENE,62,12.0,14.0,18,0.00,,,0.00,weatherlink.com 1.10,2013-05-07 21:02:00,
2013-05-07 15:17:00,79.2,32.0,29.70,East,86,1.0,17.0,18,0.00,,,0.00,weatherlink.com 1.10,2013-05-07 21:17:00,
2013-05-07 15:32:00,80.5,32.0,29.70,NE,56,14.0,17.0,17,0.00,,,0.00,weatherlink.com 1.10,2013-05-07 21:32:00,
2013-05-07 15:47:00,77.4,32.0,29.70,East,96,7.0,14.0,19,0.00,,,0.00,weatherlink.com 1.10,2013-05-07 21:47:00,
2013-05-07 16:02:00,78.8,30.0,29.69,ENE,69,12.0,12.0,17,0.00,,,0.00,weatherlink.com 1.10,2013-05-07 22:02:00,
2013-05-07 16:17:00,79.9,30.0,29.69,ENE,57,8.0,20.0,16,0.00,,,0.00,weatherlink.com 1.10,2013-05-07 22:17:00,
2013-05-07 16:33:00,79.6,28.0,29.69,NNW,341,11.0,18.0,15,0.00,,,0.00,weatherlink.com 1.10,2013-05-07 22:33:00,
2013-05-07 16:47:00,79.8,30.0,29.69,ENE,57,11.0,14.0,16,0.00,,,0.00,weatherlink.com 1.10,2013-05-07 22:47:00,
2013-05-07 17:02:00,79.6,26.0,29.70,ENE,60,14.0,18.0,14,0.00,,,0.00,weatherlink.com 1.10,2013-05-07 23:02:00,
2013-05-07 17:17:00,79.4,26.0,29.69,NE,53,12.0,14.0,14,0.00,,,0.00,weatherlink.com 1.10,2013-05-07 23:17:00,
2013-05-07 17:32:00,79.3,28.0,29.70,ENE,67,10.0,14.0,15,0.00,,,0.00,weatherlink.com 1.10,2013-05-07 23:32:00,
2013-05-07 17:47:00,78.9,29.0,29.70,ENE,65,7.0,10.0,16,0.00,,,0.00,weatherlink.com 1.10,2013-05-07 23:47:00,
2013-05-07 18:02:00,77.3,29.0,29.70,North,1,5.0,11.0,17,0.00,,,0.00,weatherlink.com 1.10,2013-05-08 00:02:00,
2013-05-07 18:17:00,78.9,29.0,29.70,NE,43,5.0,17.0,16,0.00,,,0.00,weatherlink.com 1.10,2013-05-08 00:17:00,
2013-05-07 18:32:00,78.6,30.0,29.70,NE,49,10.0,17.0,17,0.00,,,0.00,weatherlink.com 1.10,2013-05-08 00:32:00,
2013-05-07 18:47:00,78.2,30.0,29.70,NNE,32,7.0,17.0,17,0.00,,,0.00,weatherlink.com 1.10,2013-05-08 00:47:00,
2013-05-07 19:02:00,76.9,30.0,29.71,NE,34,6.0,12.0,18,0.00,,,0.00,weatherlink.com 1.10,2013-05-08 01:02:00,
2013-05-07 19:17:00,76.3,30.0,29.72,ENE,58,10.0,20.0,18,0.00,,,0.00,weatherlink.com 1.10,2013-05-08 01:17:00,
2013-05-07 19:32:00,76.2,31.0,29.72,NE,41,7.0,13.0,19,0.00,,,0.00,weatherlink.com 1.10,2013-05-08 01:32:00,
2013-05-07 19:47:00,76.0,31.0,29.73,NNE,26,8.0,17.0,19,0.00,,,0.00,weatherlink.com 1.10,2013-05-08 01:47:00,
2013-05-07 20:02:00,75.0,30.0,29.74,NE,36,7.0,11.0,19,0.00,,,0.00,weatherlink.com 1.10,2013-05-08 02:02:00,
2013-05-07 20:17:00,73.5,30.0,29.74,NE,34,6.0,11.0,20,0.00,,,0.00,weatherlink.com 1.10,2013-05-08 02:17:00,
2013-05-07 20:32:00,71.8,31.0,29.75,NE,46,4.0,13.0,22,0.00,,,0.00,weatherlink.com 1.10,2013-05-08 02:32:00,
2013-05-07 20:47:00,70.3,31.0,29.75,NE,40,7.0,11.0,23,0.00,,,0.00,weatherlink.com 1.10,2013-05-08 02:47:00,
2013-05-07 21:02:00,68.6,31.0,29.76,NE,43,2.0,8.0,25,0.00,,,0.00,weatherlink.com 1.10,2013-05-08 03:02:00,
2013-05-07 21:17:00,68.0,32.0,29.77,ENE,68,3.0,10.0,26,0.00,,,0.00,weatherlink.com 1.10,2013-05-08 03:17:00,
2013-05-07 21:32:00,65.8,31.0,29.78,NE,39,2.0,8.0,27,0.00,,,0.00,weatherlink.com 1.10,2013-05-08 03:32:00,
2013-05-07 21:47:00,64.3,33.0,29.78,NE,46,2.0,3.0,31,0.00,,,0.00,weatherlink.com 1.10,2013-05-08 03:47:00,
2013-05-07 22:02:00,62.8,32.0,29.79,SE,141,1.0,3.0,32,0.00,,,0.00,weatherlink.com 1.10,2013-05-08 04:02:00,
2013-05-07 22:17:00,61.0,32.0,29.79,ESE,121,2.0,3.0,34,0.00,,,0.00,weatherlink.com 1.10,2013-05-08 04:17:00,
2013-05-07 22:32:00,59.4,32.0,29.80,SW,233,0.0,2.0,36,0.00,,,0.00,weatherlink.com 1.10,2013-05-08 04:32:00,
2013-05-07 22:47:00,58.0,32.0,29.80,SW,231,1.0,2.0,38,0.00,,,0.00,weatherlink.com 1.10,2013-05-08 04:47:00,
2013-05-07 23:02:00,57.0,32.0,29.81,SW,221,0.0,3.0,39,0.00,,,0.00,weatherlink.com 1.10,2013-05-08 05:02:00,
2013-05-07 23:17:00,54.5,32.0,29.81,SSW,205,2.0,2.0,42,0.00,,,0.00,weatherlink.com 1.10,2013-05-08 05:17:00,
2013-05-07 23:32:00,53.2,32.0,29.81,SW,224,1.0,1.0,44,0.00,,,0.00,weatherlink.com 1.10,2013-05-08 05:32:00,
2013-05-07 23:47:00,52.7,32.0,29.82,SW,231,0.0,1.0,46,0.00,,,0.00,weatherlink.com 1.10,2013-05-08 05:47:00,